sensor_id;sensor_type;location;lat;lon;timestamp;pressure;altitude;pressure_sealevel;temperature;humidity
35778;BME280;21899;42.662;23.316;2022-08-18T00:01:47;94300.94;;;22.37;60.87
35778;BME280;21899;42.662;23.316;2022-08-18T00:04:14;94296.97;;;22.38;61.36
35778;BME280;21899;42.662;23.316;2022-08-18T00:06:40;94302.41;;;22.47;61.03
35778;BME280;21899;42.662;23.316;2022-08-18T00:09:07;94297.25;;;22.49;61.09
35778;BME280;21899;42.662;23.316;2022-08-18T00:11:37;94302.88;;;22.46;61.22
35778;BME280;21899;42.662;23.316;2022-08-18T00:14:02;94307.69;;;22.09;63.24
35778;BME280;21899;42.662;23.316;2022-08-18T00:16:28;94302.00;;;21.89;64.35
35778;BME280;21899;42.662;23.316;2022-08-18T00:18:54;94304.00;;;21.79;64.95
35778;BME280;21899;42.662;23.316;2022-08-18T00:21:19;94316.84;;;21.79;64.84
35778;BME280;21899;42.662;23.316;2022-08-18T00:23:45;94308.84;;;21.66;65.39
35778;BME280;21899;42.662;23.316;2022-08-18T00:26:10;94312.03;;;21.65;65.78
35778;BME280;21899;42.662;23.316;2022-08-18T00:28:35;94310.78;;;21.66;65.99
35778;BME280;21899;42.662;23.316;2022-08-18T00:31:03;94310.50;;;21.73;65.58
35778;BME280;21899;42.662;23.316;2022-08-18T00:33:29;94301.56;;;21.72;65.27
35778;BME280;21899;42.662;23.316;2022-08-18T00:35:54;94307.63;;;21.67;65.92
35778;BME280;21899;42.662;23.316;2022-08-18T00:38:20;94305.38;;;21.39;67.32
35778;BME280;21899;42.662;23.316;2022-08-18T00:40:48;94310.22;;;21.35;67.99
35778;BME280;21899;42.662;23.316;2022-08-18T00:43:21;94308.88;;;21.30;67.97
35778;BME280;21899;42.662;23.316;2022-08-18T00:45:49;94306.91;;;21.40;67.72
35778;BME280;21899;42.662;23.316;2022-08-18T00:48:15;94304.03;;;21.43;67.41
35778;BME280;21899;42.662;23.316;2022-08-18T00:50:49;94304.91;;;21.49;67.36
35778;BME280;21899;42.662;23.316;2022-08-18T00:55:59;94309.00;;;21.54;67.42
35778;BME280;21899;42.662;23.316;2022-08-18T00:58:31;94319.00;;;21.48;67.76
35778;BME280;21899;42.662;23.316;2022-08-18T01:01:02;94312.03;;;21.11;69.26
35778;BME280;21899;42.662;23.316;2022-08-18T01:03:30;94319.25;;;20.96;70.38
35778;BME280;21899;42.662;23.316;2022-08-18T01:08:47;94319.84;;;20.91;70.40
35778;BME280;21899;42.662;23.316;2022-08-18T01:11:13;94319.53;;;20.89;70.82
35778;BME280;21899;42.662;23.316;2022-08-18T01:13:40;94321.09;;;20.99;69.89
35778;BME280;21899;42.662;23.316;2022-08-18T01:16:06;94315.66;;;21.08;69.66
35778;BME280;21899;42.662;23.316;2022-08-18T01:18:50;94315.06;;;21.04;69.51
35778;BME280;21899;42.662;23.316;2022-08-18T01:21:38;94313.22;;;21.01;69.42
35778;BME280;21899;42.662;23.316;2022-08-18T01:24:33;94321.09;;;21.08;69.37
35778;BME280;21899;42.662;23.316;2022-08-18T01:27:32;94313.66;;;20.90;70.54
35778;BME280;21899;42.662;23.316;2022-08-18T01:30:03;94312.59;;;20.97;70.81
35778;BME280;21899;42.662;23.316;2022-08-18T01:32:35;94304.41;;;20.88;70.83
35778;BME280;21899;42.662;23.316;2022-08-18T01:35:01;94306.22;;;20.82;71.67
35778;BME280;21899;42.662;23.316;2022-08-18T01:37:27;94312.28;;;20.86;71.56
35778;BME280;21899;42.662;23.316;2022-08-18T01:39:54;94310.16;;;20.81;71.81
35778;BME280;21899;42.662;23.316;2022-08-18T01:42:20;94321.31;;;20.83;71.67
35778;BME280;21899;42.662;23.316;2022-08-18T01:44:47;94307.72;;;20.83;71.82
35778;BME280;21899;42.662;23.316;2022-08-18T01:47:16;94318.28;;;20.71;72.44
35778;BME280;21899;42.662;23.316;2022-08-18T01:49:43;94302.88;;;20.68;72.52
35778;BME280;21899;42.662;23.316;2022-08-18T01:52:19;94299.66;;;20.52;73.23
35778;BME280;21899;42.662;23.316;2022-08-18T01:54:49;94304.06;;;20.58;73.45
35778;BME280;21899;42.662;23.316;2022-08-18T01:57:17;94305.28;;;20.66;73.14
35778;BME280;21899;42.662;23.316;2022-08-18T01:59:43;94301.53;;;20.73;72.77
35778;BME280;21899;42.662;23.316;2022-08-18T02:02:12;94300.34;;;20.74;72.89
35778;BME280;21899;42.662;23.316;2022-08-18T02:04:39;94298.03;;;20.72;72.53
35778;BME280;21899;42.662;23.316;2022-08-18T02:07:09;94301.97;;;20.71;72.68
35778;BME280;21899;42.662;23.316;2022-08-18T02:09:36;94306.19;;;20.72;72.77
35778;BME280;21899;42.662;23.316;2022-08-18T02:12:03;94317.38;;;20.74;72.82
35778;BME280;21899;42.662;23.316;2022-08-18T02:14:30;94314.66;;;20.74;72.16
35778;BME280;21899;42.662;23.316;2022-08-18T02:16:56;94309.38;;;20.71;72.76
35778;BME280;21899;42.662;23.316;2022-08-18T02:19:21;94307.72;;;20.73;73.22
35778;BME280;21899;42.662;23.316;2022-08-18T02:21:47;94307.69;;;20.64;73.30
35778;BME280;21899;42.662;23.316;2022-08-18T02:24:12;94304.97;;;20.64;73.30
35778;BME280;21899;42.662;23.316;2022-08-18T02:26:38;94318.56;;;20.64;73.45
35778;BME280;21899;42.662;23.316;2022-08-18T02:29:03;94289.69;;;20.58;73.32
35778;BME280;21899;42.662;23.316;2022-08-18T02:31:29;94299.22;;;20.53;73.81
35778;BME280;21899;42.662;23.316;2022-08-18T02:33:54;94299.03;;;20.48;73.86
35778;BME280;21899;42.662;23.316;2022-08-18T02:36:21;94303.25;;;20.40;74.66
35778;BME280;21899;42.662;23.316;2022-08-18T02:38:46;94301.16;;;20.13;77.15
35778;BME280;21899;42.662;23.316;2022-08-18T02:41:12;94302.63;;;20.05;77.65
35778;BME280;21899;42.662;23.316;2022-08-18T02:43:39;94302.38;;;20.12;76.96
35778;BME280;21899;42.662;23.316;2022-08-18T02:46:06;94300.00;;;20.23;75.34
35778;BME280;21899;42.662;23.316;2022-08-18T02:48:32;94306.41;;;20.29;75.70
35778;BME280;21899;42.662;23.316;2022-08-18T02:51:07;94308.09;;;20.36;75.98
35778;BME280;21899;42.662;23.316;2022-08-18T02:53:34;94300.66;;;20.36;76.02
35778;BME280;21899;42.662;23.316;2022-08-18T02:56:08;94310.66;;;20.39;75.59
35778;BME280;21899;42.662;23.316;2022-08-18T02:58:43;94311.41;;;20.40;75.41
35778;BME280;21899;42.662;23.316;2022-08-18T03:01:09;94301.41;;;20.28;75.13
35778;BME280;21899;42.662;23.316;2022-08-18T03:03:35;94308.97;;;20.33;75.45
35778;BME280;21899;42.662;23.316;2022-08-18T03:06:00;94305.81;;;20.34;75.38
35778;BME280;21899;42.662;23.316;2022-08-18T03:08:26;94313.78;;;20.29;75.01
35778;BME280;21899;42.662;23.316;2022-08-18T03:10:51;94299.28;;;20.23;75.30
35778;BME280;21899;42.662;23.316;2022-08-18T03:13:17;94307.91;;;20.30;75.80
35778;BME280;21899;42.662;23.316;2022-08-18T03:15:42;94314.84;;;20.31;75.42
35778;BME280;21899;42.662;23.316;2022-08-18T03:18:09;94315.28;;;20.30;75.32
35778;BME280;21899;42.662;23.316;2022-08-18T03:20:36;94314.25;;;20.27;74.99
35778;BME280;21899;42.662;23.316;2022-08-18T03:23:03;94318.47;;;20.28;74.90
35778;BME280;21899;42.662;23.316;2022-08-18T03:25:28;94316.69;;;20.34;75.78
35778;BME280;21899;42.662;23.316;2022-08-18T03:27:54;94313.03;;;20.28;75.67
35778;BME280;21899;42.662;23.316;2022-08-18T03:30:19;94320.72;;;20.30;75.61
35778;BME280;21899;42.662;23.316;2022-08-18T03:32:45;94324.16;;;20.21;76.28
35778;BME280;21899;42.662;23.316;2022-08-18T03:35:11;94314.81;;;20.22;76.28
35778;BME280;21899;42.662;23.316;2022-08-18T03:37:39;94319.63;;;20.18;76.33
35778;BME280;21899;42.662;23.316;2022-08-18T03:40:05;94321.44;;;20.21;76.18
35778;BME280;21899;42.662;23.316;2022-08-18T03:42:30;94322.28;;;20.09;76.62
35778;BME280;21899;42.662;23.316;2022-08-18T03:44:56;94325.41;;;19.99;78.40
35778;BME280;21899;42.662;23.316;2022-08-18T03:47:21;94316.69;;;19.82;79.61
35778;BME280;21899;42.662;23.316;2022-08-18T03:49:47;94328.38;;;19.92;79.32
35778;BME280;21899;42.662;23.316;2022-08-18T03:52:13;94318.50;;;19.76;79.68
35778;BME280;21899;42.662;23.316;2022-08-18T03:54:39;94319.41;;;19.82;80.07
35778;BME280;21899;42.662;23.316;2022-08-18T03:57:10;94318.22;;;19.83;80.14
35778;BME280;21899;42.662;23.316;2022-08-18T03:59:39;94323.97;;;19.85;79.88
35778;BME280;21899;42.662;23.316;2022-08-18T04:02:09;94319.28;;;19.86;79.54
35778;BME280;21899;42.662;23.316;2022-08-18T04:04:35;94328.88;;;19.99;78.98
35778;BME280;21899;42.662;23.316;2022-08-18T04:07:05;94330.56;;;20.06;79.02
35778;BME280;21899;42.662;23.316;2022-08-18T04:09:33;94332.53;;;20.05;78.99
35778;BME280;21899;42.662;23.316;2022-08-18T04:12:06;94337.84;;;19.87;80.53
35778;BME280;21899;42.662;23.316;2022-08-18T04:14:38;94346.72;;;19.57;82.14
35778;BME280;21899;42.662;23.316;2022-08-18T04:17:04;94344.97;;;19.63;81.48
35778;BME280;21899;42.662;23.316;2022-08-18T04:19:29;94349.88;;;19.77;80.85
35778;BME280;21899;42.662;23.316;2022-08-18T04:21:57;94345.81;;;19.82;80.76
35778;BME280;21899;42.662;23.316;2022-08-18T04:24:24;94354.78;;;19.91;80.32
35778;BME280;21899;42.662;23.316;2022-08-18T04:26:50;94343.53;;;20.02;80.05
35778;BME280;21899;42.662;23.316;2022-08-18T04:29:18;94346.13;;;19.84;80.22
35778;BME280;21899;42.662;23.316;2022-08-18T04:31:45;94356.41;;;20.10;79.33
35778;BME280;21899;42.662;23.316;2022-08-18T04:34:12;94357.22;;;20.20;79.07
35778;BME280;21899;42.662;23.316;2022-08-18T04:36:38;94352.53;;;20.51;78.04
35778;BME280;21899;42.662;23.316;2022-08-18T04:39:06;94363.66;;;20.84;76.47
35778;BME280;21899;42.662;23.316;2022-08-18T04:41:33;94367.91;;;20.94;75.84
35778;BME280;21899;42.662;23.316;2022-08-18T04:44:02;94364.53;;;21.20;75.20
35778;BME280;21899;42.662;23.316;2022-08-18T04:46:30;94358.00;;;21.36;74.38
35778;BME280;21899;42.662;23.316;2022-08-18T04:48:58;94356.81;;;21.55;73.23
35778;BME280;21899;42.662;23.316;2022-08-18T04:51:26;94354.22;;;21.60;72.34
35778;BME280;21899;42.662;23.316;2022-08-18T04:53:53;94358.75;;;21.72;71.75
35778;BME280;21899;42.662;23.316;2022-08-18T04:56:32;94363.16;;;21.70;71.30
35778;BME280;21899;42.662;23.316;2022-08-18T04:59:03;94366.19;;;21.81;70.35
35778;BME280;21899;42.662;23.316;2022-08-18T05:01:33;94361.78;;;21.83;70.39
35778;BME280;21899;42.662;23.316;2022-08-18T05:03:59;94370.13;;;21.89;70.11
35778;BME280;21899;42.662;23.316;2022-08-18T05:06:27;94369.06;;;21.95;69.40
35778;BME280;21899;42.662;23.316;2022-08-18T05:08:54;94370.59;;;21.87;69.19
35778;BME280;21899;42.662;23.316;2022-08-18T05:11:22;94374.34;;;21.99;69.37
35778;BME280;21899;42.662;23.316;2022-08-18T05:13:49;94365.59;;;21.68;69.81
35778;BME280;21899;42.662;23.316;2022-08-18T05:16:17;94361.19;;;21.52;70.44
35778;BME280;21899;42.662;23.316;2022-08-18T05:18:42;94373.75;;;21.77;69.77
35778;BME280;21899;42.662;23.316;2022-08-18T05:21:09;94370.84;;;21.98;69.70
35778;BME280;21899;42.662;23.316;2022-08-18T05:23:40;94379.34;;;22.01;68.59
35778;BME280;21899;42.662;23.316;2022-08-18T05:26:06;94380.63;;;22.32;67.06
35778;BME280;21899;42.662;23.316;2022-08-18T05:28:32;94377.19;;;22.64;66.21
35778;BME280;21899;42.662;23.316;2022-08-18T05:31:08;94376.47;;;22.87;65.19
35778;BME280;21899;42.662;23.316;2022-08-18T05:33:34;94379.19;;;22.64;64.99
35778;BME280;21899;42.662;23.316;2022-08-18T05:36:04;94375.75;;;22.36;65.84
35778;BME280;21899;42.662;23.316;2022-08-18T05:41:13;94385.97;;;22.68;64.56
35778;BME280;21899;42.662;23.316;2022-08-18T05:43:41;94381.22;;;22.78;64.38
35778;BME280;21899;42.662;23.316;2022-08-18T05:46:09;94384.16;;;22.98;63.86
35778;BME280;21899;42.662;23.316;2022-08-18T05:48:35;94386.69;;;23.10;63.94
35778;BME280;21899;42.662;23.316;2022-08-18T05:51:27;94386.13;;;22.97;64.98
35778;BME280;21899;42.662;23.316;2022-08-18T05:53:53;94384.16;;;22.98;64.73
35778;BME280;21899;42.662;23.316;2022-08-18T05:56:38;94392.69;;;23.23;63.65
35778;BME280;21899;42.662;23.316;2022-08-18T05:59:16;94387.94;;;23.24;63.84
35778;BME280;21899;42.662;23.316;2022-08-18T06:01:47;94390.72;;;22.91;64.38
35778;BME280;21899;42.662;23.316;2022-08-18T06:04:27;94388.06;;;22.82;64.30
35778;BME280;21899;42.662;23.316;2022-08-18T06:06:55;94395.69;;;23.02;64.57
35778;BME280;21899;42.662;23.316;2022-08-18T06:09:35;94386.28;;;22.70;64.58
35778;BME280;21899;42.662;23.316;2022-08-18T06:14:50;94381.22;;;23.10;63.53
35778;BME280;21899;42.662;23.316;2022-08-18T06:17:41;94390.28;;;23.16;63.41
35778;BME280;21899;42.662;23.316;2022-08-18T06:20:25;94385.41;;;23.44;62.32
35778;BME280;21899;42.662;23.316;2022-08-18T06:23:07;94391.22;;;23.61;61.42
35778;BME280;21899;42.662;23.316;2022-08-18T06:28:19;94389.34;;;23.67;61.66
35778;BME280;21899;42.662;23.316;2022-08-18T06:31:53;94390.81;;;23.91;60.93
35778;BME280;21899;42.662;23.316;2022-08-18T06:33:56;94394.88;;;23.96;60.29
35778;BME280;21899;42.662;23.316;2022-08-18T06:41:43;94397.25;;;24.61;58.22
35778;BME280;21899;42.662;23.316;2022-08-18T06:49:55;94388.47;;;24.86;55.89
35778;BME280;21899;42.662;23.316;2022-08-18T06:55:11;94370.41;;;24.94;55.61
35778;BME280;21899;42.662;23.316;2022-08-18T07:03:17;94361.69;;;25.10;55.17
35778;BME280;21899;42.662;23.316;2022-08-18T07:08:33;94358.69;;;25.28;54.68
35778;BME280;21899;42.662;23.316;2022-08-18T07:11:20;94365.47;;;25.33;54.75
35778;BME280;21899;42.662;23.316;2022-08-18T07:13:48;94357.75;;;25.51;54.58
35778;BME280;21899;42.662;23.316;2022-08-18T07:18:40;94362.78;;;25.79;53.94
35778;BME280;21899;42.662;23.316;2022-08-18T07:21:06;94353.50;;;25.96;53.30
35778;BME280;21899;42.662;23.316;2022-08-18T07:23:36;94344.63;;;26.07;51.05
35778;BME280;21899;42.662;23.316;2022-08-18T07:26:15;94357.00;;;26.22;50.49
35778;BME280;21899;42.662;23.316;2022-08-18T07:28:47;94349.53;;;26.23;50.30
35778;BME280;21899;42.662;23.316;2022-08-18T07:31:25;94355.34;;;26.30;50.16
35778;BME280;21899;42.662;23.316;2022-08-18T07:36:36;94351.84;;;26.61;49.80
35778;BME280;21899;42.662;23.316;2022-08-18T07:39:13;94348.06;;;26.58;48.71
35778;BME280;21899;42.662;23.316;2022-08-18T07:41:43;94356.38;;;26.64;48.86
35778;BME280;21899;42.662;23.316;2022-08-18T07:44:45;94360.69;;;26.70;48.09
35778;BME280;21899;42.662;23.316;2022-08-18T07:47:33;94349.25;;;26.77;47.78
35778;BME280;21899;42.662;23.316;2022-08-18T07:50:05;94363.53;;;26.87;48.00
35778;BME280;21899;42.662;23.316;2022-08-18T07:52:37;94349.47;;;26.74;47.18
35778;BME280;21899;42.662;23.316;2022-08-18T07:57:48;94347.56;;;26.85;48.32
35778;BME280;21899;42.662;23.316;2022-08-18T08:06:08;94360.09;;;27.34;47.19
35778;BME280;21899;42.662;23.316;2022-08-18T08:15:06;94361.38;;;27.44;45.15
35778;BME280;21899;42.662;23.316;2022-08-18T08:17:45;94344.41;;;27.51;44.66
35778;BME280;21899;42.662;23.316;2022-08-18T08:29:07;94361.13;;;28.23;42.78
35778;BME280;21899;42.662;23.316;2022-08-18T08:32:18;94351.16;;;28.31;42.25
35778;BME280;21899;42.662;23.316;2022-08-18T08:34:51;94356.19;;;28.55;42.37
35778;BME280;21899;42.662;23.316;2022-08-18T08:37:51;94355.69;;;28.67;41.69
35778;BME280;21899;42.662;23.316;2022-08-18T08:40:25;94343.16;;;28.72;40.89
35778;BME280;21899;42.662;23.316;2022-08-18T08:43:00;94357.69;;;28.89;39.88
35778;BME280;21899;42.662;23.316;2022-08-18T08:45:43;94346.63;;;28.94;39.47
35778;BME280;21899;42.662;23.316;2022-08-18T08:48:20;94359.63;;;28.99;39.20
35778;BME280;21899;42.662;23.316;2022-08-18T08:53:24;94350.34;;;29.19;38.13
35778;BME280;21899;42.662;23.316;2022-08-18T08:55:58;94350.13;;;29.17;37.49
35778;BME280;21899;42.662;23.316;2022-08-18T08:58:49;94346.31;;;29.25;36.99
35778;BME280;21899;42.662;23.316;2022-08-18T09:09:33;94344.59;;;29.06;37.14
35778;BME280;21899;42.662;23.316;2022-08-18T09:14:41;94335.50;;;29.44;36.74
35778;BME280;21899;42.662;23.316;2022-08-18T09:42:01;94312.22;;;29.91;34.29
35778;BME280;21899;42.662;23.316;2022-08-18T09:54:59;94306.97;;;30.28;33.18
35778;BME280;21899;42.662;23.316;2022-08-18T09:57:25;94300.81;;;30.46;33.06
35778;BME280;21899;42.662;23.316;2022-08-18T10:07:42;94289.38;;;30.61;32.85
35778;BME280;21899;42.662;23.316;2022-08-18T10:12:50;94285.75;;;30.72;33.38
35778;BME280;21899;42.662;23.316;2022-08-18T10:20:26;94278.63;;;30.87;32.50
35778;BME280;21899;42.662;23.316;2022-08-18T10:22:54;94279.97;;;30.99;32.15
35778;BME280;21899;42.662;23.316;2022-08-18T10:25:36;94287.97;;;31.03;32.24
35778;BME280;21899;42.662;23.316;2022-08-18T10:28:03;94280.03;;;31.18;30.51
35778;BME280;21899;42.662;23.316;2022-08-18T10:32:59;94274.34;;;30.86;31.55
35778;BME280;21899;42.662;23.316;2022-08-18T10:38:23;94275.16;;;30.51;31.12
35778;BME280;21899;42.662;23.316;2022-08-18T10:41:04;94268.50;;;30.66;31.18
35778;BME280;21899;42.662;23.316;2022-08-18T10:43:47;94271.66;;;30.81;32.09
35778;BME280;21899;42.662;23.316;2022-08-18T10:46:22;94270.78;;;30.91;31.54
35778;BME280;21899;42.662;23.316;2022-08-18T10:49:00;94266.22;;;30.94;32.06
35778;BME280;21899;42.662;23.316;2022-08-18T10:51:36;94259.53;;;31.08;30.81
35778;BME280;21899;42.662;23.316;2022-08-18T10:56:56;94253.78;;;30.82;31.32
35778;BME280;21899;42.662;23.316;2022-08-18T11:02:12;94244.91;;;31.13;30.93
35778;BME280;21899;42.662;23.316;2022-08-18T11:04:45;94240.06;;;31.19;31.37
35778;BME280;21899;42.662;23.316;2022-08-18T11:09:46;94230.03;;;31.40;30.45
35778;BME280;21899;42.662;23.316;2022-08-18T11:12:14;94231.16;;;31.50;30.54
35778;BME280;21899;42.662;23.316;2022-08-18T11:17:43;94246.16;;;31.36;30.01
35778;BME280;21899;42.662;23.316;2022-08-18T11:20:15;94244.16;;;31.31;29.37
35778;BME280;21899;42.662;23.316;2022-08-18T11:22:53;94239.56;;;31.39;29.62
35778;BME280;21899;42.662;23.316;2022-08-18T11:25:26;94241.00;;;31.45;29.00
35778;BME280;21899;42.662;23.316;2022-08-18T11:27:52;94245.41;;;31.54;28.37
35778;BME280;21899;42.662;23.316;2022-08-18T11:30:18;94233.44;;;31.46;29.03
35778;BME280;21899;42.662;23.316;2022-08-18T11:32:45;94236.16;;;31.51;28.79
35778;BME280;21899;42.662;23.316;2022-08-18T11:35:15;94232.41;;;31.67;29.12
35778;BME280;21899;42.662;23.316;2022-08-18T11:37:56;94241.16;;;31.90;28.84
35778;BME280;21899;42.662;23.316;2022-08-18T11:45:48;94237.00;;;32.15;28.53
35778;BME280;21899;42.662;23.316;2022-08-18T11:53:22;94230.28;;;32.11;27.11
35778;BME280;21899;42.662;23.316;2022-08-18T12:01:39;94226.94;;;31.99;27.30
35778;BME280;21899;42.662;23.316;2022-08-18T12:04:35;94218.63;;;31.99;27.47
35778;BME280;21899;42.662;23.316;2022-08-18T12:07:06;94208.50;;;32.02;27.17
35778;BME280;21899;42.662;23.316;2022-08-18T12:14:32;94197.44;;;32.46;28.21
35778;BME280;21899;42.662;23.316;2022-08-18T12:16:59;94204.50;;;32.60;27.21
35778;BME280;21899;42.662;23.316;2022-08-18T12:19:25;94189.59;;;32.50;27.09
35778;BME280;21899;42.662;23.316;2022-08-18T12:21:59;94200.03;;;32.44;27.45
35778;BME280;21899;42.662;23.316;2022-08-18T12:24:30;94197.34;;;32.39;27.99
35778;BME280;21899;42.662;23.316;2022-08-18T12:26:57;94207.09;;;32.27;27.58
35778;BME280;21899;42.662;23.316;2022-08-18T12:29:23;94202.03;;;32.12;27.68
35778;BME280;21899;42.662;23.316;2022-08-18T12:31:51;94200.66;;;32.06;28.05
35778;BME280;21899;42.662;23.316;2022-08-18T12:34:18;94211.16;;;31.94;27.37
35778;BME280;21899;42.662;23.316;2022-08-18T12:36:45;94186.84;;;31.87;27.13
35778;BME280;21899;42.662;23.316;2022-08-18T12:39:11;94190.41;;;32.01;27.14
35778;BME280;21899;42.662;23.316;2022-08-18T12:41:37;94188.50;;;32.09;27.41
35778;BME280;21899;42.662;23.316;2022-08-18T12:44:03;94191.19;;;32.14;27.75
35778;BME280;21899;42.662;23.316;2022-08-18T12:46:29;94197.16;;;32.18;28.43
35778;BME280;21899;42.662;23.316;2022-08-18T12:48:55;94205.88;;;32.09;28.58
35778;BME280;21899;42.662;23.316;2022-08-18T12:51:21;94208.00;;;32.03;28.77
35778;BME280;21899;42.662;23.316;2022-08-18T12:53:46;94204.56;;;31.97;28.56
35778;BME280;21899;42.662;23.316;2022-08-18T12:56:29;94194.16;;;32.03;28.26
35778;BME280;21899;42.662;23.316;2022-08-18T12:58:57;94181.19;;;32.11;28.37
35778;BME280;21899;42.662;23.316;2022-08-18T13:01:23;94184.09;;;32.32;28.46
35778;BME280;21899;42.662;23.316;2022-08-18T13:03:50;94195.75;;;32.43;28.71
35778;BME280;21899;42.662;23.316;2022-08-18T13:06:18;94189.22;;;32.28;27.84
35778;BME280;21899;42.662;23.316;2022-08-18T13:08:44;94191.44;;;32.29;28.23
35778;BME280;21899;42.662;23.316;2022-08-18T13:11:09;94186.50;;;32.09;27.57
35778;BME280;21899;42.662;23.316;2022-08-18T13:13:38;94183.94;;;32.11;28.46
35778;BME280;21899;42.662;23.316;2022-08-18T13:16:07;94177.56;;;32.16;28.16
35778;BME280;21899;42.662;23.316;2022-08-18T13:18:34;94177.91;;;32.26;28.03
35778;BME280;21899;42.662;23.316;2022-08-18T13:21:01;94167.47;;;32.32;27.69
35778;BME280;21899;42.662;23.316;2022-08-18T13:23:28;94171.13;;;32.53;28.18
35778;BME280;21899;42.662;23.316;2022-08-18T13:25:55;94173.19;;;32.65;26.83
35778;BME280;21899;42.662;23.316;2022-08-18T13:28:22;94171.03;;;32.71;27.28
35778;BME280;21899;42.662;23.316;2022-08-18T13:30:47;94165.94;;;32.62;26.89
35778;BME280;21899;42.662;23.316;2022-08-18T13:33:16;94164.34;;;32.67;26.92
35778;BME280;21899;42.662;23.316;2022-08-18T13:35:43;94168.50;;;32.60;27.14
35778;BME280;21899;42.662;23.316;2022-08-18T13:38:09;94162.84;;;32.66;27.08
35778;BME280;21899;42.662;23.316;2022-08-18T13:40:36;94158.69;;;32.59;27.29
35778;BME280;21899;42.662;23.316;2022-08-18T13:43:02;94163.03;;;32.68;27.46
35778;BME280;21899;42.662;23.316;2022-08-18T13:45:28;94174.03;;;32.60;27.31
35778;BME280;21899;42.662;23.316;2022-08-18T13:47:53;94156.78;;;32.54;26.79
35778;BME280;21899;42.662;23.316;2022-08-18T13:50:19;94159.91;;;32.32;27.01
35778;BME280;21899;42.662;23.316;2022-08-18T13:52:45;94157.75;;;32.25;27.37
35778;BME280;21899;42.662;23.316;2022-08-18T13:55:16;94156.38;;;32.32;27.60
35778;BME280;21899;42.662;23.316;2022-08-18T13:57:42;94158.22;;;32.29;27.35
35778;BME280;21899;42.662;23.316;2022-08-18T14:00:14;94151.59;;;32.32;27.47
35778;BME280;21899;42.662;23.316;2022-08-18T14:02:40;94151.59;;;32.32;27.27
35778;BME280;21899;42.662;23.316;2022-08-18T14:05:06;94142.00;;;32.33;27.11
35778;BME280;21899;42.662;23.316;2022-08-18T14:07:33;94148.25;;;32.39;27.28
35778;BME280;21899;42.662;23.316;2022-08-18T14:10:00;94155.34;;;32.48;27.05
35778;BME280;21899;42.662;23.316;2022-08-18T14:12:26;94157.41;;;32.47;27.05
35778;BME280;21899;42.662;23.316;2022-08-18T14:14:52;94141.94;;;32.52;27.01
35778;BME280;21899;42.662;23.316;2022-08-18T14:17:20;94151.66;;;32.58;27.53
35778;BME280;21899;42.662;23.316;2022-08-18T14:19:46;94142.91;;;32.67;27.34
35778;BME280;21899;42.662;23.316;2022-08-18T14:22:30;94135.78;;;32.72;27.27
35778;BME280;21899;42.662;23.316;2022-08-18T14:25:14;94132.47;;;32.73;26.76
35778;BME280;21899;42.662;23.316;2022-08-18T14:27:58;94141.63;;;32.81;26.77
35778;BME280;21899;42.662;23.316;2022-08-18T14:30:24;94134.50;;;32.99;26.15
35778;BME280;21899;42.662;23.316;2022-08-18T14:32:50;94135.22;;;32.99;26.64
35778;BME280;21899;42.662;23.316;2022-08-18T14:35:17;94137.22;;;32.86;26.98
35778;BME280;21899;42.662;23.316;2022-08-18T14:37:44;94129.38;;;32.90;26.84
35778;BME280;21899;42.662;23.316;2022-08-18T14:40:10;94131.38;;;32.89;26.76
35778;BME280;21899;42.662;23.316;2022-08-18T14:42:36;94127.56;;;32.92;26.86
35778;BME280;21899;42.662;23.316;2022-08-18T14:45:05;94134.47;;;32.73;26.99
35778;BME280;21899;42.662;23.316;2022-08-18T14:47:31;94127.13;;;32.75;26.60
35778;BME280;21899;42.662;23.316;2022-08-18T14:49:57;94133.84;;;32.80;26.87
35778;BME280;21899;42.662;23.316;2022-08-18T14:52:23;94129.78;;;32.81;27.00
35778;BME280;21899;42.662;23.316;2022-08-18T14:54:49;94130.53;;;32.81;26.97
35778;BME280;21899;42.662;23.316;2022-08-18T14:57:15;94140.69;;;32.66;27.08
35778;BME280;21899;42.662;23.316;2022-08-18T14:59:41;94142.16;;;32.67;26.96
35778;BME280;21899;42.662;23.316;2022-08-18T15:02:09;94142.06;;;32.59;26.84
35778;BME280;21899;42.662;23.316;2022-08-18T15:04:36;94145.03;;;32.61;27.25
35778;BME280;21899;42.662;23.316;2022-08-18T15:07:02;94132.25;;;32.58;27.19
35778;BME280;21899;42.662;23.316;2022-08-18T15:09:27;94132.25;;;32.45;27.50
35778;BME280;21899;42.662;23.316;2022-08-18T15:11:58;94144.63;;;32.44;27.80
35778;BME280;21899;42.662;23.316;2022-08-18T15:14:26;94133.19;;;32.48;27.44
35778;BME280;21899;42.662;23.316;2022-08-18T15:16:52;94137.69;;;32.51;28.10
35778;BME280;21899;42.662;23.316;2022-08-18T15:19:17;94141.72;;;32.63;27.82
35778;BME280;21899;42.662;23.316;2022-08-18T15:21:43;94147.38;;;32.70;27.88
35778;BME280;21899;42.662;23.316;2022-08-18T15:24:27;94137.25;;;32.73;27.49
35778;BME280;21899;42.662;23.316;2022-08-18T15:27:11;94142.78;;;32.73;27.44
35778;BME280;21899;42.662;23.316;2022-08-18T15:29:36;94141.84;;;32.70;27.84
35778;BME280;21899;42.662;23.316;2022-08-18T15:32:02;94145.78;;;32.62;27.71
35778;BME280;21899;42.662;23.316;2022-08-18T15:34:28;94150.53;;;32.35;27.73
35778;BME280;21899;42.662;23.316;2022-08-18T15:36:54;94147.00;;;32.35;27.71
35778;BME280;21899;42.662;23.316;2022-08-18T15:39:21;94152.22;;;32.25;28.11
35778;BME280;21899;42.662;23.316;2022-08-18T15:41:47;94143.59;;;32.16;28.28
35778;BME280;21899;42.662;23.316;2022-08-18T15:44:15;94143.59;;;32.16;28.64
35778;BME280;21899;42.662;23.316;2022-08-18T15:46:42;94142.53;;;32.19;28.75
35778;BME280;21899;42.662;23.316;2022-08-18T15:49:08;94151.28;;;32.23;28.72
35778;BME280;21899;42.662;23.316;2022-08-18T15:51:35;94143.38;;;32.27;29.15